Airfield :
LOGIN :

Register | Disclaimer

   EN    FR    IT 

 










Legend :    VFR   Marginal VFR   IFR   Intensive IFR   Very Intensive IFR
Visi :
Ceiling :
>= 8 km
>= 3000ft
5 to 8 km
1000 to 3000 ft
1500m to 5 km
500 to 1000 ft
800 to 1500m
200 to 500 ft
< 800m
< 200 ft
Symbols :   Thunderstorms  Fog  Heavy snow  Heavy precipitations  Wind > 20 kt
SIGMETs :     Misc.  Thunderstorms  Icing  Turbulence  Mountain Waves  Volcanic Ashes







- Airport Elevation : 1411 ft
- IATA code : SZG


LOWS - Salzburg

CURRENT METAR :
  • 211150Z 35007KT 310V030 9999 FEW030 SCT050 19/11 Q1024 NOSIG

EXPIRED METARs :
  • 211120Z 01007KT 330V040 9999 FEW028 BKN050 18/10 Q1024 NOSIG
  • 211050Z VRB02KT 9999 FEW028 BKN050 18/11 Q1024 NOSIG
  • 211020Z VRB03KT 9999 FEW028 SCT050 18/09 Q1024 NOSIG
  • 210950Z VRB04KT 9999 FEW024 SCT070 17/10 Q1025 NOSIG
  • 210920Z 33003KT 9999 FEW022 BKN055 17/09 Q1025 NOSIG

TAF TAF LOWS
Valid from the 21 at 12:00 until the 22 at 12:00 UTC


211115Z 2112/2212 30007KT 9999 SCT060 TX22/2212Z TN10/2205Z
TEMPO 2112/2114 30012KT BKN060
BECMG 2117/2119 15005KT
TEMPO 2200/2207 16008KT CAVOK
BECMG 2207/2209 34006KT
No reported NOTAMs for that airfield.



MET'MAP, your aeronautical weather chart ! - Copyright ORBIFLY December 2007 - Disclaimer

ORBIFLY MET'MAP TEAM :

Programming & Development : Alexandra Zaïnal
Concept & Development : Baudouin d'Aumeries
Co-Development & Prog : Marc-Olivier Méhu
Technical & hardware support : Manuel Goepfert

Contact : metmap@orbifly.com




SOURCES & CREDITS :

   NOAA